sensor_id;sensor_type;location;lat;lon;timestamp;P1;durP1;ratioP1;P2;durP2;ratioP2
48285;SDS011;34102;47.716;10.296;2022-12-05T04:31:55;9.65;;;5.95;;
48285;SDS011;34102;47.716;10.296;2022-12-05T04:34:22;7.63;;;5.68;;
48285;SDS011;34102;47.716;10.296;2022-12-05T04:41:43;8.80;;;5.05;;
48285;SDS011;34102;47.716;10.296;2022-12-05T04:44:10;8.48;;;5.47;;
48285;SDS011;34102;47.716;10.296;2022-12-05T04:46:37;7.88;;;5.28;;
48285;SDS011;34102;47.716;10.296;2022-12-05T04:49:05;7.80;;;5.43;;
48285;SDS011;34102;47.716;10.296;2022-12-05T04:51:32;7.57;;;4.65;;
48285;SDS011;34102;47.716;10.296;2022-12-05T04:54:04;8.85;;;5.43;;
48285;SDS011;34102;47.716;10.296;2022-12-05T04:56:32;8.65;;;5.18;;
48285;SDS011;34102;47.716;10.296;2022-12-05T04:58:58;8.98;;;6.18;;
48285;SDS011;34102;47.716;10.296;2022-12-05T05:01:29;7.60;;;5.18;;
48285;SDS011;34102;47.716;10.296;2022-12-05T05:03:57;9.18;;;5.53;;
48285;SDS011;34102;47.716;10.296;2022-12-05T05:06:23;8.68;;;5.22;;
48285;SDS011;34102;47.716;10.296;2022-12-05T05:08:54;9.10;;;5.80;;
48285;SDS011;34102;47.716;10.296;2022-12-05T05:13:44;7.57;;;4.38;;
48285;SDS011;34102;47.716;10.296;2022-12-05T05:16:14;7.57;;;4.65;;
48285;SDS011;34102;47.716;10.296;2022-12-05T05:18:42;7.82;;;4.90;;
48285;SDS011;34102;47.716;10.296;2022-12-05T05:21:12;8.35;;;5.18;;
48285;SDS011;34102;47.716;10.296;2022-12-05T05:23:38;7.80;;;4.32;;
48285;SDS011;34102;47.716;10.296;2022-12-05T05:26:03;6.57;;;4.60;;
48285;SDS011;34102;47.716;10.296;2022-12-05T05:28:28;7.80;;;4.68;;
48285;SDS011;34102;47.716;10.296;2022-12-05T05:30:54;6.80;;;4.38;;
48285;SDS011;34102;47.716;10.296;2022-12-05T05:33:19;6.53;;;4.45;;
48285;SDS011;34102;47.716;10.296;2022-12-05T05:35:44;7.00;;;4.35;;
48285;SDS011;34102;47.716;10.296;2022-12-05T05:38:09;6.85;;;4.72;;
48285;SDS011;34102;47.716;10.296;2022-12-05T05:40:35;7.20;;;4.85;;
48285;SDS011;34102;47.716;10.296;2022-12-05T05:43:01;7.60;;;4.22;;
48285;SDS011;34102;47.716;10.296;2022-12-05T05:45:26;7.45;;;4.90;;
48285;SDS011;34102;47.716;10.296;2022-12-05T05:47:51;6.20;;;3.97;;
48285;SDS011;34102;47.716;10.296;2022-12-05T05:50:16;6.35;;;4.47;;
48285;SDS011;34102;47.716;10.296;2022-12-05T05:52:42;7.20;;;4.60;;
48285;SDS011;34102;47.716;10.296;2022-12-05T05:55:07;6.63;;;4.65;;
48285;SDS011;34102;47.716;10.296;2022-12-05T05:57:33;6.95;;;4.70;;
48285;SDS011;34102;47.716;10.296;2022-12-05T05:59:58;6.13;;;4.13;;
48285;SDS011;34102;47.716;10.296;2022-12-05T06:02:24;6.97;;;4.50;;
48285;SDS011;34102;47.716;10.296;2022-12-05T06:04:49;7.38;;;4.55;;
48285;SDS011;34102;47.716;10.296;2022-12-05T06:07:14;5.50;;;4.05;;
48285;SDS011;34102;47.716;10.296;2022-12-05T06:09:40;6.40;;;4.00;;
48285;SDS011;34102;47.716;10.296;2022-12-05T06:12:05;6.30;;;3.88;;
48285;SDS011;34102;47.716;10.296;2022-12-05T06:14:30;5.70;;;3.67;;
48285;SDS011;34102;47.716;10.296;2022-12-05T06:16:55;6.22;;;2.88;;
48285;SDS011;34102;47.716;10.296;2022-12-05T06:19:21;7.13;;;3.45;;
48285;SDS011;34102;47.716;10.296;2022-12-05T06:21:47;5.82;;;3.63;;
48285;SDS011;34102;47.716;10.296;2022-12-05T06:24:13;4.15;;;3.17;;
48285;SDS011;34102;47.716;10.296;2022-12-05T06:26:38;13.30;;;8.73;;
48285;SDS011;34102;47.716;10.296;2022-12-05T06:29:03;5.63;;;3.50;;
48285;SDS011;34102;47.716;10.296;2022-12-05T06:31:28;5.70;;;3.70;;
48285;SDS011;34102;47.716;10.296;2022-12-05T06:33:58;5.20;;;3.50;;
48285;SDS011;34102;47.716;10.296;2022-12-05T06:36:23;5.15;;;3.50;;
48285;SDS011;34102;47.716;10.296;2022-12-05T06:38:49;7.00;;;4.63;;
48285;SDS011;34102;47.716;10.296;2022-12-05T06:41:15;5.93;;;3.58;;
48285;SDS011;34102;47.716;10.296;2022-12-05T06:43:41;4.85;;;3.17;;
48285;SDS011;34102;47.716;10.296;2022-12-05T06:46:08;6.03;;;3.67;;
48285;SDS011;34102;47.716;10.296;2022-12-05T06:48:34;5.63;;;3.25;;
48285;SDS011;34102;47.716;10.296;2022-12-05T06:50:59;5.18;;;3.38;;
48285;SDS011;34102;47.716;10.296;2022-12-05T06:53:24;5.35;;;3.13;;
48285;SDS011;34102;47.716;10.296;2022-12-05T06:55:59;3.97;;;2.67;;
48285;SDS011;34102;47.716;10.296;2022-12-05T06:58:25;3.45;;;2.33;;
48285;SDS011;34102;47.716;10.296;2022-12-05T07:00:50;4.25;;;2.58;;
48285;SDS011;34102;47.716;10.296;2022-12-05T07:03:34;6.00;;;3.05;;
48285;SDS011;34102;47.716;10.296;2022-12-05T07:05:59;4.55;;;2.60;;
48285;SDS011;34102;47.716;10.296;2022-12-05T07:08:25;4.35;;;2.80;;
48285;SDS011;34102;47.716;10.296;2022-12-05T07:10:50;4.03;;;2.67;;
48285;SDS011;34102;47.716;10.296;2022-12-05T07:13:16;4.25;;;2.35;;
48285;SDS011;34102;47.716;10.296;2022-12-05T07:15:41;3.75;;;2.55;;
48285;SDS011;34102;47.716;10.296;2022-12-05T07:18:06;3.15;;;1.80;;
48285;SDS011;34102;47.716;10.296;2022-12-05T07:20:32;3.42;;;1.92;;
48285;SDS011;34102;47.716;10.296;2022-12-05T07:22:57;2.88;;;1.88;;
48285;SDS011;34102;47.716;10.296;2022-12-05T07:25:22;3.55;;;2.22;;
48285;SDS011;34102;47.716;10.296;2022-12-05T07:27:59;4.50;;;2.40;;
48285;SDS011;34102;47.716;10.296;2022-12-05T07:30:25;3.60;;;2.17;;
48285;SDS011;34102;47.716;10.296;2022-12-05T07:32:50;4.93;;;2.10;;
48285;SDS011;34102;47.716;10.296;2022-12-05T07:35:15;3.47;;;2.05;;
48285;SDS011;34102;47.716;10.296;2022-12-05T07:37:40;3.55;;;2.17;;
48285;SDS011;34102;47.716;10.296;2022-12-05T07:40:06;2.90;;;1.80;;
48285;SDS011;34102;47.716;10.296;2022-12-05T07:42:31;3.20;;;2.05;;
48285;SDS011;34102;47.716;10.296;2022-12-05T07:44:57;2.72;;;2.13;;
48285;SDS011;34102;47.716;10.296;2022-12-05T07:47:22;4.20;;;2.60;;
48285;SDS011;34102;47.716;10.296;2022-12-05T07:49:47;3.75;;;2.00;;
48285;SDS011;34102;47.716;10.296;2022-12-05T07:52:12;3.22;;;2.30;;
48285;SDS011;34102;47.716;10.296;2022-12-05T07:54:38;2.95;;;1.75;;
48285;SDS011;34102;47.716;10.296;2022-12-05T07:57:03;2.53;;;1.73;;
48285;SDS011;34102;47.716;10.296;2022-12-05T07:59:28;3.25;;;1.80;;
48285;SDS011;34102;47.716;10.296;2022-12-05T08:01:54;3.30;;;1.75;;
48285;SDS011;34102;47.716;10.296;2022-12-05T08:04:19;3.63;;;1.65;;
48285;SDS011;34102;47.716;10.296;2022-12-05T08:06:44;3.13;;;1.40;;
48285;SDS011;34102;47.716;10.296;2022-12-05T08:09:09;2.38;;;1.35;;
48285;SDS011;34102;47.716;10.296;2022-12-05T08:11:34;2.50;;;1.77;;
48285;SDS011;34102;47.716;10.296;2022-12-05T08:14:01;2.13;;;1.40;;
48285;SDS011;34102;47.716;10.296;2022-12-05T08:16:27;2.20;;;1.27;;
48285;SDS011;34102;47.716;10.296;2022-12-05T08:18:56;2.13;;;1.35;;
48285;SDS011;34102;47.716;10.296;2022-12-05T08:21:22;2.17;;;1.38;;
48285;SDS011;34102;47.716;10.296;2022-12-05T08:23:49;1.83;;;1.08;;
48285;SDS011;34102;47.716;10.296;2022-12-05T08:26:18;1.70;;;0.90;;
48285;SDS011;34102;47.716;10.296;2022-12-05T08:28:45;2.45;;;1.30;;
48285;SDS011;34102;47.716;10.296;2022-12-05T08:31:14;2.78;;;1.05;;
48285;SDS011;34102;47.716;10.296;2022-12-05T08:33:40;3.83;;;1.77;;
48285;SDS011;34102;47.716;10.296;2022-12-05T08:36:07;1.75;;;1.10;;
48285;SDS011;34102;47.716;10.296;2022-12-05T08:38:33;3.05;;;1.85;;
48285;SDS011;34102;47.716;10.296;2022-12-05T08:41:02;2.60;;;1.70;;
48285;SDS011;34102;47.716;10.296;2022-12-05T08:43:28;2.42;;;1.65;;
48285;SDS011;34102;47.716;10.296;2022-12-05T08:45:54;2.90;;;1.55;;
48285;SDS011;34102;47.716;10.296;2022-12-05T08:48:19;2.65;;;1.52;;
48285;SDS011;34102;47.716;10.296;2022-12-05T08:50:44;4.35;;;1.55;;
48285;SDS011;34102;47.716;10.296;2022-12-05T08:53:10;2.90;;;1.63;;
48285;SDS011;34102;47.716;10.296;2022-12-05T08:55:35;4.70;;;1.60;;
48285;SDS011;34102;47.716;10.296;2022-12-05T08:58:01;2.05;;;1.60;;
48285;SDS011;34102;47.716;10.296;2022-12-05T09:00:26;2.60;;;1.60;;
48285;SDS011;34102;47.716;10.296;2022-12-05T09:02:51;2.10;;;1.20;;
48285;SDS011;34102;47.716;10.296;2022-12-05T09:05:17;2.03;;;1.40;;
48285;SDS011;34102;47.716;10.296;2022-12-05T09:07:42;2.83;;;1.48;;
48285;SDS011;34102;47.716;10.296;2022-12-05T09:10:07;1.95;;;1.40;;
48285;SDS011;34102;47.716;10.296;2022-12-05T09:12:36;2.03;;;1.15;;
48285;SDS011;34102;47.716;10.296;2022-12-05T09:15:02;1.92;;;1.05;;
48285;SDS011;34102;47.716;10.296;2022-12-05T09:17:28;2.13;;;1.38;;
48285;SDS011;34102;47.716;10.296;2022-12-05T09:19:53;1.92;;;1.05;;
48285;SDS011;34102;47.716;10.296;2022-12-05T09:22:18;1.48;;;0.80;;
48285;SDS011;34102;47.716;10.296;2022-12-05T09:24:43;1.48;;;0.70;;
48285;SDS011;34102;47.716;10.296;2022-12-05T09:27:09;1.63;;;0.95;;
48285;SDS011;34102;47.716;10.296;2022-12-05T09:29:34;3.88;;;1.10;;
48285;SDS011;34102;47.716;10.296;2022-12-05T09:31:59;1.45;;;0.50;;
48285;SDS011;34102;47.716;10.296;2022-12-05T09:34:25;0.90;;;0.50;;
48285;SDS011;34102;47.716;10.296;2022-12-05T09:36:50;3.00;;;0.77;;
48285;SDS011;34102;47.716;10.296;2022-12-05T09:39:16;1.63;;;0.95;;
48285;SDS011;34102;47.716;10.296;2022-12-05T09:44:45;0.82;;;0.43;;
48285;SDS011;34102;47.716;10.296;2022-12-05T09:50:17;1.00;;;0.40;;
48285;SDS011;34102;47.716;10.296;2022-12-05T09:52:54;2.38;;;1.38;;
48285;SDS011;34102;47.716;10.296;2022-12-05T09:55:22;1.05;;;0.55;;
48285;SDS011;34102;47.716;10.296;2022-12-05T09:57:49;0.60;;;0.30;;
48285;SDS011;34102;47.716;10.296;2022-12-05T10:00:15;0.80;;;0.47;;
48285;SDS011;34102;47.716;10.296;2022-12-05T10:02:56;1.30;;;0.80;;
48285;SDS011;34102;47.716;10.296;2022-12-05T10:13:04;1.15;;;0.63;;
48285;SDS011;34102;47.716;10.296;2022-12-05T10:15:34;0.52;;;0.35;;
48285;SDS011;34102;47.716;10.296;2022-12-05T10:18:13;0.65;;;0.40;;
48285;SDS011;34102;47.716;10.296;2022-12-05T10:20:46;1.50;;;0.70;;
48285;SDS011;34102;47.716;10.296;2022-12-05T10:25:51;1.13;;;0.40;;
48285;SDS011;34102;47.716;10.296;2022-12-05T10:28:26;1.20;;;0.68;;
48285;SDS011;34102;47.716;10.296;2022-12-05T10:30:53;1.48;;;0.80;;
48285;SDS011;34102;47.716;10.296;2022-12-05T10:33:21;1.30;;;0.70;;
48285;SDS011;34102;47.716;10.296;2022-12-05T10:35:47;1.08;;;0.52;;
48285;SDS011;34102;47.716;10.296;2022-12-05T10:38:24;1.45;;;0.65;;
48285;SDS011;34102;47.716;10.296;2022-12-05T10:40:51;1.08;;;0.50;;
48285;SDS011;34102;47.716;10.296;2022-12-05T10:43:28;1.00;;;0.40;;
48285;SDS011;34102;47.716;10.296;2022-12-05T10:45:54;0.50;;;0.30;;
48285;SDS011;34102;47.716;10.296;2022-12-05T10:48:20;0.80;;;0.30;;
48285;SDS011;34102;47.716;10.296;2022-12-05T10:50:46;0.43;;;0.30;;
48285;SDS011;34102;47.716;10.296;2022-12-05T10:53:18;0.77;;;0.25;;
48285;SDS011;34102;47.716;10.296;2022-12-05T10:55:45;0.28;;;0.20;;
48285;SDS011;34102;47.716;10.296;2022-12-05T11:00:37;1.17;;;0.20;;
48285;SDS011;34102;47.716;10.296;2022-12-05T11:03:32;0.50;;;0.20;;
48285;SDS011;34102;47.716;10.296;2022-12-05T11:06:13;0.50;;;0.20;;
48285;SDS011;34102;47.716;10.296;2022-12-05T11:08:38;0.50;;;0.20;;
48285;SDS011;34102;47.716;10.296;2022-12-05T11:13:29;0.20;;;0.10;;
48285;SDS011;34102;47.716;10.296;2022-12-05T11:15:54;0.28;;;0.10;;
48285;SDS011;34102;47.716;10.296;2022-12-05T11:20:48;0.60;;;0.28;;
48285;SDS011;34102;47.716;10.296;2022-12-05T11:23:21;0.52;;;0.10;;
48285;SDS011;34102;47.716;10.296;2022-12-05T11:25:47;0.22;;;0.10;;
48285;SDS011;34102;47.716;10.296;2022-12-05T11:33:26;0.57;;;0.35;;
48285;SDS011;34102;47.716;10.296;2022-12-05T11:35:52;1.15;;;0.20;;
48285;SDS011;34102;47.716;10.296;2022-12-05T11:38:18;0.50;;;0.10;;
48285;SDS011;34102;47.716;10.296;2022-12-05T11:48:50;1.83;;;0.80;;
48285;SDS011;34102;47.716;10.296;2022-12-05T11:53:50;0.73;;;0.40;;
48285;SDS011;34102;47.716;10.296;2022-12-05T11:58:55;1.02;;;0.50;;
48285;SDS011;34102;47.716;10.296;2022-12-05T12:01:33;0.40;;;0.20;;
48285;SDS011;34102;47.716;10.296;2022-12-05T12:09:29;0.52;;;0.10;;
48285;SDS011;34102;47.716;10.296;2022-12-05T12:14:27;0.73;;;0.30;;
48285;SDS011;34102;47.716;10.296;2022-12-05T12:17:02;0.75;;;0.22;;
48285;SDS011;34102;47.716;10.296;2022-12-05T12:19:43;1.00;;;0.20;;
48285;SDS011;34102;47.716;10.296;2022-12-05T12:37:16;0.40;;;0.10;;
48285;SDS011;34102;47.716;10.296;2022-12-05T12:42:19;0.80;;;0.25;;
48285;SDS011;34102;47.716;10.296;2022-12-05T12:44:49;0.65;;;0.30;;
48285;SDS011;34102;47.716;10.296;2022-12-05T12:47:20;0.57;;;0.22;;
48285;SDS011;34102;47.716;10.296;2022-12-05T12:49:58;0.63;;;0.20;;
48285;SDS011;34102;47.716;10.296;2022-12-05T12:52:28;0.57;;;0.20;;
48285;SDS011;34102;47.716;10.296;2022-12-05T13:02:57;1.40;;;0.20;;
48285;SDS011;34102;47.716;10.296;2022-12-05T13:10:44;1.98;;;0.57;;
48285;SDS011;34102;47.716;10.296;2022-12-05T13:13:11;3.20;;;0.32;;
48285;SDS011;34102;47.716;10.296;2022-12-05T13:15:38;0.28;;;0.10;;
48285;SDS011;34102;47.716;10.296;2022-12-05T13:18:05;1.02;;;0.82;;
48285;SDS011;34102;47.716;10.296;2022-12-05T13:20:32;1.35;;;0.40;;
48285;SDS011;34102;47.716;10.296;2022-12-05T13:22:58;1.40;;;0.38;;
48285;SDS011;34102;47.716;10.296;2022-12-05T13:25:25;0.60;;;0.20;;
48285;SDS011;34102;47.716;10.296;2022-12-05T13:27:55;1.13;;;0.30;;
48285;SDS011;34102;47.716;10.296;2022-12-05T13:30:22;1.17;;;0.40;;
48285;SDS011;34102;47.716;10.296;2022-12-05T13:32:47;1.17;;;0.30;;
48285;SDS011;34102;47.716;10.296;2022-12-05T13:35:20;1.10;;;0.30;;
48285;SDS011;34102;47.716;10.296;2022-12-05T13:38:43;0.80;;;0.22;;
48285;SDS011;34102;47.716;10.296;2022-12-05T13:41:20;0.80;;;0.50;;
48285;SDS011;34102;47.716;10.296;2022-12-05T13:44:04;0.65;;;0.30;;
48285;SDS011;34102;47.716;10.296;2022-12-05T13:46:36;0.75;;;0.40;;
48285;SDS011;34102;47.716;10.296;2022-12-05T13:49:03;1.10;;;0.40;;
48285;SDS011;34102;47.716;10.296;2022-12-05T13:53:58;0.77;;;0.30;;
48285;SDS011;34102;47.716;10.296;2022-12-05T13:56:47;1.42;;;0.47;;
48285;SDS011;34102;47.716;10.296;2022-12-05T13:59:56;1.10;;;0.50;;
48285;SDS011;34102;47.716;10.296;2022-12-05T14:01:59;1.98;;;0.60;;
48285;SDS011;34102;47.716;10.296;2022-12-05T14:04:40;1.65;;;0.50;;
48285;SDS011;34102;47.716;10.296;2022-12-05T14:07:07;0.93;;;0.50;;
48285;SDS011;34102;47.716;10.296;2022-12-05T14:09:54;0.80;;;0.40;;
48285;SDS011;34102;47.716;10.296;2022-12-05T14:17:25;0.75;;;0.40;;
48285;SDS011;34102;47.716;10.296;2022-12-05T14:20:18;3.17;;;1.10;;
48285;SDS011;34102;47.716;10.296;2022-12-05T14:32:37;1.00;;;0.40;;
48285;SDS011;34102;47.716;10.296;2022-12-05T14:37:35;2.08;;;0.30;;
48285;SDS011;34102;47.716;10.296;2022-12-05T14:40:03;2.28;;;0.50;;
48285;SDS011;34102;47.716;10.296;2022-12-05T14:42:41;1.75;;;1.05;;
48285;SDS011;34102;47.716;10.296;2022-12-05T14:47:52;4.25;;;1.27;;
48285;SDS011;34102;47.716;10.296;2022-12-05T14:50:39;2.05;;;1.13;;
48285;SDS011;34102;47.716;10.296;2022-12-05T14:55:43;3.28;;;1.85;;
48285;SDS011;34102;47.716;10.296;2022-12-05T14:58:31;3.03;;;0.88;;
48285;SDS011;34102;47.716;10.296;2022-12-05T15:03:22;0.60;;;0.38;;
48285;SDS011;34102;47.716;10.296;2022-12-05T15:05:49;1.27;;;0.50;;
48285;SDS011;34102;47.716;10.296;2022-12-05T15:08:14;1.67;;;0.30;;
48285;SDS011;34102;47.716;10.296;2022-12-05T15:10:40;1.00;;;0.57;;
48285;SDS011;34102;47.716;10.296;2022-12-05T15:13:09;1.38;;;0.60;;
48285;SDS011;34102;47.716;10.296;2022-12-05T15:15:41;2.20;;;0.63;;
48285;SDS011;34102;47.716;10.296;2022-12-05T15:28:37;0.60;;;0.30;;
48285;SDS011;34102;47.716;10.296;2022-12-05T15:31:02;0.50;;;0.30;;
48285;SDS011;34102;47.716;10.296;2022-12-05T15:33:29;1.17;;;0.32;;
48285;SDS011;34102;47.716;10.296;2022-12-05T15:35:55;1.00;;;0.50;;
48285;SDS011;34102;47.716;10.296;2022-12-05T15:38:25;1.77;;;0.90;;
48285;SDS011;34102;47.716;10.296;2022-12-05T15:40:51;1.50;;;0.65;;
48285;SDS011;34102;47.716;10.296;2022-12-05T15:43:25;1.52;;;0.80;;
48285;SDS011;34102;47.716;10.296;2022-12-05T15:48:16;2.25;;;1.02;;
48285;SDS011;34102;47.716;10.296;2022-12-05T15:50:42;1.02;;;0.65;;
48285;SDS011;34102;47.716;10.296;2022-12-05T15:55:46;4.47;;;1.10;;
48285;SDS011;34102;47.716;10.296;2022-12-05T15:58:25;2.75;;;0.73;;
48285;SDS011;34102;47.716;10.296;2022-12-05T16:00:53;3.47;;;1.48;;
48285;SDS011;34102;47.716;10.296;2022-12-05T16:03:20;1.33;;;0.80;;
48285;SDS011;34102;47.716;10.296;2022-12-05T16:05:54;1.45;;;0.70;;
48285;SDS011;34102;47.716;10.296;2022-12-05T16:08:21;1.38;;;0.50;;
48285;SDS011;34102;47.716;10.296;2022-12-05T16:10:48;1.08;;;0.50;;
48285;SDS011;34102;47.716;10.296;2022-12-05T16:13:14;1.67;;;0.73;;
48285;SDS011;34102;47.716;10.296;2022-12-05T16:15:46;1.98;;;0.88;;
48285;SDS011;34102;47.716;10.296;2022-12-05T16:18:46;4.55;;;0.93;;
48285;SDS011;34102;47.716;10.296;2022-12-05T16:21:26;1.70;;;1.05;;
48285;SDS011;34102;47.716;10.296;2022-12-05T16:23:58;3.55;;;2.42;;
48285;SDS011;34102;47.716;10.296;2022-12-05T16:26:23;5.20;;;3.50;;
48285;SDS011;34102;47.716;10.296;2022-12-05T16:28:59;7.18;;;4.95;;
48285;SDS011;34102;47.716;10.296;2022-12-05T16:31:25;8.40;;;5.40;;
48285;SDS011;34102;47.716;10.296;2022-12-05T16:34:13;4.15;;;2.47;;
48285;SDS011;34102;47.716;10.296;2022-12-05T16:36:44;6.50;;;3.88;;
48285;SDS011;34102;47.716;10.296;2022-12-05T16:39:13;3.13;;;2.10;;
48285;SDS011;34102;47.716;10.296;2022-12-05T16:41:39;2.63;;;1.63;;
48285;SDS011;34102;47.716;10.296;2022-12-05T16:44:05;1.30;;;1.08;;
48285;SDS011;34102;47.716;10.296;2022-12-05T16:46:48;3.25;;;1.20;;
48285;SDS011;34102;47.716;10.296;2022-12-05T16:54:22;14.63;;;7.63;;
48285;SDS011;34102;47.716;10.296;2022-12-05T16:56:47;8.65;;;4.97;;
48285;SDS011;34102;47.716;10.296;2022-12-05T16:59:16;40.42;;;17.48;;
48285;SDS011;34102;47.716;10.296;2022-12-05T17:01:43;14.77;;;7.95;;
48285;SDS011;34102;47.716;10.296;2022-12-05T17:04:09;22.83;;;12.13;;
48285;SDS011;34102;47.716;10.296;2022-12-05T17:06:35;11.77;;;6.78;;
48285;SDS011;34102;47.716;10.296;2022-12-05T17:09:00;19.10;;;10.40;;
48285;SDS011;34102;47.716;10.296;2022-12-05T17:11:29;5.15;;;3.58;;
48285;SDS011;34102;47.716;10.296;2022-12-05T17:13:55;9.68;;;4.88;;
48285;SDS011;34102;47.716;10.296;2022-12-05T17:16:23;11.73;;;6.35;;
48285;SDS011;34102;47.716;10.296;2022-12-05T17:18:48;7.68;;;5.03;;
48285;SDS011;34102;47.716;10.296;2022-12-05T17:21:14;15.10;;;9.60;;
48285;SDS011;34102;47.716;10.296;2022-12-05T17:23:40;18.83;;;11.85;;
48285;SDS011;34102;47.716;10.296;2022-12-05T17:26:07;17.45;;;10.77;;
48285;SDS011;34102;47.716;10.296;2022-12-05T17:28:32;12.90;;;9.05;;
48285;SDS011;34102;47.716;10.296;2022-12-05T17:30:58;13.25;;;9.30;;
48285;SDS011;34102;47.716;10.296;2022-12-05T17:33:23;31.52;;;18.58;;
48285;SDS011;34102;47.716;10.296;2022-12-05T17:35:48;14.38;;;9.82;;
48285;SDS011;34102;47.716;10.296;2022-12-05T17:38:14;8.50;;;5.68;;
48285;SDS011;34102;47.716;10.296;2022-12-05T17:40:40;12.27;;;6.85;;
48285;SDS011;34102;47.716;10.296;2022-12-05T17:43:05;8.90;;;6.75;;
48285;SDS011;34102;47.716;10.296;2022-12-05T17:45:31;12.80;;;7.07;;
48285;SDS011;34102;47.716;10.296;2022-12-05T17:47:57;6.00;;;4.05;;
48285;SDS011;34102;47.716;10.296;2022-12-05T17:50:23;6.10;;;4.32;;
48285;SDS011;34102;47.716;10.296;2022-12-05T17:52:48;5.85;;;3.30;;
48285;SDS011;34102;47.716;10.296;2022-12-05T17:55:17;8.88;;;4.88;;
48285;SDS011;34102;47.716;10.296;2022-12-05T17:57:43;6.68;;;4.63;;
48285;SDS011;34102;47.716;10.296;2022-12-05T18:00:09;7.53;;;5.10;;
48285;SDS011;34102;47.716;10.296;2022-12-05T18:02:35;8.95;;;5.35;;
48285;SDS011;34102;47.716;10.296;2022-12-05T18:05:00;12.18;;;5.63;;
48285;SDS011;34102;47.716;10.296;2022-12-05T18:07:26;7.00;;;4.45;;
48285;SDS011;34102;47.716;10.296;2022-12-05T18:09:51;9.02;;;4.57;;
48285;SDS011;34102;47.716;10.296;2022-12-05T18:12:17;7.13;;;4.93;;
48285;SDS011;34102;47.716;10.296;2022-12-05T18:14:42;7.88;;;4.88;;
48285;SDS011;34102;47.716;10.296;2022-12-05T18:17:07;4.82;;;3.58;;
48285;SDS011;34102;47.716;10.296;2022-12-05T18:19:32;3.88;;;2.83;;
48285;SDS011;34102;47.716;10.296;2022-12-05T18:21:58;6.13;;;2.83;;
48285;SDS011;34102;47.716;10.296;2022-12-05T18:24:23;5.55;;;3.05;;
48285;SDS011;34102;47.716;10.296;2022-12-05T18:26:49;5.45;;;2.97;;
48285;SDS011;34102;47.716;10.296;2022-12-05T18:29:15;8.45;;;3.97;;
48285;SDS011;34102;47.716;10.296;2022-12-05T18:31:40;6.32;;;3.70;;
48285;SDS011;34102;47.716;10.296;2022-12-05T18:34:08;5.13;;;3.10;;
48285;SDS011;34102;47.716;10.296;2022-12-05T18:36:34;5.45;;;3.83;;
48285;SDS011;34102;47.716;10.296;2022-12-05T18:38:59;4.20;;;2.78;;
48285;SDS011;34102;47.716;10.296;2022-12-05T18:41:25;4.30;;;2.75;;
48285;SDS011;34102;47.716;10.296;2022-12-05T18:43:51;2.25;;;1.48;;
48285;SDS011;34102;47.716;10.296;2022-12-05T18:46:16;4.47;;;2.47;;
48285;SDS011;34102;47.716;10.296;2022-12-05T18:48:42;2.83;;;1.67;;
48285;SDS011;34102;47.716;10.296;2022-12-05T18:51:09;4.32;;;2.53;;
48285;SDS011;34102;47.716;10.296;2022-12-05T18:53:34;4.63;;;2.95;;
48285;SDS011;34102;47.716;10.296;2022-12-05T18:56:06;3.85;;;2.30;;
48285;SDS011;34102;47.716;10.296;2022-12-05T18:58:32;2.85;;;2.20;;
48285;SDS011;34102;47.716;10.296;2022-12-05T19:01:05;2.65;;;1.73;;
48285;SDS011;34102;47.716;10.296;2022-12-05T19:03:32;4.57;;;2.53;;
48285;SDS011;34102;47.716;10.296;2022-12-05T19:06:00;3.83;;;2.00;;
48285;SDS011;34102;47.716;10.296;2022-12-05T19:08:26;4.53;;;2.25;;
48285;SDS011;34102;47.716;10.296;2022-12-05T19:10:51;4.70;;;2.20;;
48285;SDS011;34102;47.716;10.296;2022-12-05T19:13:17;4.65;;;2.00;;
48285;SDS011;34102;47.716;10.296;2022-12-05T19:15:46;3.63;;;2.17;;
48285;SDS011;34102;47.716;10.296;2022-12-05T19:18:11;2.90;;;2.15;;
48285;SDS011;34102;47.716;10.296;2022-12-05T19:20:37;4.40;;;2.45;;
48285;SDS011;34102;47.716;10.296;2022-12-05T19:23:02;4.55;;;2.22;;
48285;SDS011;34102;47.716;10.296;2022-12-05T19:25:28;3.55;;;2.17;;
48285;SDS011;34102;47.716;10.296;2022-12-05T19:27:54;3.70;;;2.10;;
48285;SDS011;34102;47.716;10.296;2022-12-05T19:30:19;4.75;;;2.70;;
48285;SDS011;34102;47.716;10.296;2022-12-05T19:32:44;5.43;;;2.70;;
48285;SDS011;34102;47.716;10.296;2022-12-05T19:35:10;6.30;;;3.15;;
48285;SDS011;34102;47.716;10.296;2022-12-05T19:37:35;7.30;;;3.40;;
48285;SDS011;34102;47.716;10.296;2022-12-05T19:40:00;7.80;;;2.90;;
48285;SDS011;34102;47.716;10.296;2022-12-05T19:42:25;5.85;;;2.83;;
48285;SDS011;34102;47.716;10.296;2022-12-05T19:44:53;6.05;;;2.97;;
48285;SDS011;34102;47.716;10.296;2022-12-05T19:47:18;4.93;;;2.63;;
48285;SDS011;34102;47.716;10.296;2022-12-05T19:49:43;4.45;;;3.20;;
48285;SDS011;34102;47.716;10.296;2022-12-05T19:52:09;4.85;;;3.10;;
48285;SDS011;34102;47.716;10.296;2022-12-05T19:54:34;5.03;;;3.42;;
48285;SDS011;34102;47.716;10.296;2022-12-05T19:56:59;5.78;;;3.28;;
48285;SDS011;34102;47.716;10.296;2022-12-05T19:59:25;4.32;;;2.53;;
48285;SDS011;34102;47.716;10.296;2022-12-05T20:01:50;4.40;;;2.70;;
48285;SDS011;34102;47.716;10.296;2022-12-05T20:04:16;5.25;;;3.17;;
48285;SDS011;34102;47.716;10.296;2022-12-05T20:06:42;3.38;;;1.90;;
48285;SDS011;34102;47.716;10.296;2022-12-05T20:09:08;4.00;;;2.40;;
48285;SDS011;34102;47.716;10.296;2022-12-05T20:11:33;4.97;;;3.25;;
48285;SDS011;34102;47.716;10.296;2022-12-05T20:13:59;5.10;;;3.13;;
48285;SDS011;34102;47.716;10.296;2022-12-05T20:16:25;3.28;;;2.47;;
48285;SDS011;34102;47.716;10.296;2022-12-05T20:18:54;4.25;;;2.35;;
48285;SDS011;34102;47.716;10.296;2022-12-05T20:21:20;4.75;;;2.53;;
48285;SDS011;34102;47.716;10.296;2022-12-05T20:23:49;3.88;;;2.70;;
48285;SDS011;34102;47.716;10.296;2022-12-05T20:26:19;6.18;;;3.30;;
48285;SDS011;34102;47.716;10.296;2022-12-05T20:28:44;3.30;;;2.28;;
48285;SDS011;34102;47.716;10.296;2022-12-05T20:31:14;3.58;;;2.50;;
48285;SDS011;34102;47.716;10.296;2022-12-05T20:33:40;3.80;;;2.22;;
48285;SDS011;34102;47.716;10.296;2022-12-05T20:36:10;5.63;;;3.00;;
48285;SDS011;34102;47.716;10.296;2022-12-05T20:38:35;5.30;;;2.50;;
48285;SDS011;34102;47.716;10.296;2022-12-05T20:41:02;4.30;;;2.58;;
48285;SDS011;34102;47.716;10.296;2022-12-05T20:43:28;4.85;;;2.63;;
48285;SDS011;34102;47.716;10.296;2022-12-05T20:45:53;4.13;;;2.33;;
48285;SDS011;34102;47.716;10.296;2022-12-05T20:48:19;4.78;;;2.30;;
48285;SDS011;34102;47.716;10.296;2022-12-05T20:50:46;4.47;;;2.17;;
48285;SDS011;34102;47.716;10.296;2022-12-05T20:53:11;3.90;;;2.40;;
48285;SDS011;34102;47.716;10.296;2022-12-05T20:55:36;3.58;;;2.22;;
48285;SDS011;34102;47.716;10.296;2022-12-05T20:58:02;3.53;;;2.58;;
48285;SDS011;34102;47.716;10.296;2022-12-05T21:00:27;4.75;;;2.35;;
48285;SDS011;34102;47.716;10.296;2022-12-05T21:02:52;3.65;;;2.15;;
48285;SDS011;34102;47.716;10.296;2022-12-05T21:05:20;3.50;;;2.30;;
48285;SDS011;34102;47.716;10.296;2022-12-05T21:07:45;3.20;;;1.80;;
48285;SDS011;34102;47.716;10.296;2022-12-05T21:10:10;2.60;;;1.80;;
48285;SDS011;34102;47.716;10.296;2022-12-05T21:12:35;2.58;;;1.65;;
48285;SDS011;34102;47.716;10.296;2022-12-05T21:15:00;3.40;;;1.98;;
48285;SDS011;34102;47.716;10.296;2022-12-05T21:17:26;4.63;;;2.30;;
48285;SDS011;34102;47.716;10.296;2022-12-05T21:19:51;5.65;;;2.15;;
48285;SDS011;34102;47.716;10.296;2022-12-05T21:22:16;2.58;;;2.00;;
48285;SDS011;34102;47.716;10.296;2022-12-05T21:24:42;2.67;;;1.70;;